Jupiter, Florida
Current Conditions -  °F | °C
As of 10:53 AM on Thursday 23 Oct 2014 (Local Time) from KPBI Reporting Station
Light Rain Light Rain  
Wind Chill: 75°   Ceiling: 2900
Heat Index: 75°   Visibility: 10mi
Dew Point: 69°   Wind: 10mph
Humidity: 82%   Direction: 30°NNE
Pressure: 29.95"   Gusts: NA
Location:  26.93°N, 80.1°W
Report Text: KPBI 231453Z 03009KT 10SM -RA OVC029 24/21 A2995 RMK AO2 RAE1357B20 SLP143 P0000 60000 T02390206 51014
Loading
Personal Weather Stations






























Interactive Weather Map
Tropical Storm Tracking
New forecast layout! Learn more

10-Day Weather Forecast

Advertisements
Track Severe Weather on mobile